createdAt,value
2017-10-10T00:00:04.472Z,20.81
2017-10-10T00:02:32.812Z,20.79
2017-10-10T00:05:01.147Z,20.74
2017-10-10T00:07:29.660Z,20.74
2017-10-10T00:09:58.108Z,20.76
2017-10-10T00:12:26.446Z,20.69
2017-10-10T00:14:54.700Z,20.71
2017-10-10T00:17:23.025Z,20.71
2017-10-10T00:19:51.286Z,20.66
2017-10-10T00:22:19.596Z,20.63
2017-10-10T00:24:47.934Z,20.59
2017-10-10T00:27:16.255Z,20.60
2017-10-10T00:29:44.545Z,20.60
2017-10-10T00:32:12.883Z,20.58
2017-10-10T00:34:41.228Z,20.56
2017-10-10T00:37:09.603Z,20.51
2017-10-10T00:39:37.884Z,20.53
2017-10-10T00:42:06.216Z,20.56
2017-10-10T00:44:34.466Z,20.53
2017-10-10T00:47:02.844Z,20.48
2017-10-10T00:49:31.116Z,20.48
2017-10-10T00:51:59.651Z,20.47
2017-10-10T00:54:27.931Z,20.47
2017-10-10T00:56:56.276Z,20.44
2017-10-10T00:59:24.527Z,20.45
2017-10-10T01:01:52.838Z,20.42
2017-10-10T01:04:21.194Z,20.42
2017-10-10T01:06:49.515Z,20.42
2017-10-10T01:09:17.977Z,20.37
2017-10-10T01:11:46.396Z,20.37
2017-10-10T01:14:14.647Z,20.35
2017-10-10T01:16:43.092Z,20.36
2017-10-10T01:19:11.407Z,20.34
2017-10-10T01:21:39.720Z,20.33
2017-10-10T01:24:07.965Z,20.34
2017-10-10T01:26:36.355Z,20.32
2017-10-10T01:29:04.638Z,20.29
2017-10-10T01:31:32.969Z,20.30
2017-10-10T01:34:01.304Z,20.28
2017-10-10T01:36:29.691Z,20.25
2017-10-10T01:38:58.035Z,20.29
2017-10-10T01:41:26.356Z,20.25
2017-10-10T01:43:54.669Z,20.25
2017-10-10T01:46:23.159Z,20.26
2017-10-10T01:48:51.491Z,20.23
2017-10-10T01:51:19.906Z,20.20
2017-10-10T01:53:48.221Z,20.21
2017-10-10T01:56:16.679Z,20.20
2017-10-10T01:58:45.127Z,20.19
2017-10-10T02:01:13.407Z,20.17
2017-10-10T02:03:41.683Z,20.18
2017-10-10T02:06:09.980Z,20.16
2017-10-10T02:08:38.249Z,20.17
2017-10-10T02:11:06.540Z,20.15
2017-10-10T02:13:34.971Z,20.14
2017-10-10T02:16:03.266Z,20.18
2017-10-10T02:18:31.519Z,20.15
2017-10-10T02:20:59.995Z,20.15
2017-10-10T02:23:28.505Z,20.14
2017-10-10T02:25:56.815Z,20.13
2017-10-10T02:28:25.075Z,20.11
2017-10-10T02:30:53.364Z,20.11
2017-10-10T02:33:21.816Z,20.11
2017-10-10T02:35:50.116Z,20.11
2017-10-10T02:38:18.411Z,20.10
2017-10-10T02:40:46.888Z,20.10
2017-10-10T02:43:15.165Z,20.07
2017-10-10T02:45:43.457Z,20.03
2017-10-10T02:48:11.757Z,20.06
2017-10-10T02:50:40.074Z,20.06
2017-10-10T02:53:08.371Z,20.04
2017-10-10T02:55:36.731Z,20.04
2017-10-10T02:58:05.020Z,20.04
2017-10-10T03:00:33.348Z,20.03
2017-10-10T03:03:01.625Z,20.05
2017-10-10T03:05:29.960Z,20.04
2017-10-10T03:07:58.231Z,20.03
2017-10-10T03:10:26.544Z,20.00
2017-10-10T03:12:54.832Z,20.00
2017-10-10T03:15:23.119Z,20.03
2017-10-10T03:17:51.519Z,20.01
2017-10-10T03:20:19.795Z,20.02
2017-10-10T03:22:48.036Z,19.99
2017-10-10T03:25:16.399Z,19.97
2017-10-10T03:27:44.683Z,19.96
2017-10-10T03:30:13.025Z,19.96
2017-10-10T03:32:41.275Z,19.96
2017-10-10T03:35:09.560Z,19.95
2017-10-10T03:37:37.995Z,19.94
2017-10-10T03:40:06.515Z,19.93
2017-10-10T03:42:35.232Z,19.96
2017-10-10T03:45:03.687Z,19.94
2017-10-10T03:47:31.983Z,19.92
2017-10-10T03:50:00.232Z,19.93
2017-10-10T03:52:28.555Z,19.92
2017-10-10T03:54:56.800Z,19.92
2017-10-10T03:57:25.150Z,19.90
2017-10-10T03:59:53.425Z,19.90
2017-10-10T04:05:17.638Z,19.87
2017-10-10T04:07:46.292Z,19.89
2017-10-10T04:10:14.984Z,19.87
2017-10-10T04:12:43.828Z,19.88
2017-10-10T04:15:12.814Z,19.86
2017-10-10T04:17:41.613Z,19.84
2017-10-10T04:20:10.531Z,19.88
2017-10-10T04:22:39.412Z,19.85
2017-10-10T04:25:07.926Z,19.85
2017-10-10T04:27:36.593Z,19.84
2017-10-10T04:30:05.459Z,19.86
2017-10-10T04:32:34.287Z,19.83
2017-10-10T04:35:02.876Z,19.85
2017-10-10T04:37:31.682Z,19.85
2017-10-10T04:40:00.191Z,19.84
2017-10-10T04:42:29.742Z,19.81
2017-10-10T04:44:58.540Z,19.79
2017-10-10T04:47:27.503Z,19.80
2017-10-10T04:49:56.448Z,19.82
2017-10-10T04:52:25.289Z,19.82
2017-10-10T04:54:54.023Z,19.84
2017-10-10T04:57:22.819Z,19.83
2017-10-10T04:59:51.414Z,19.85
2017-10-10T05:02:21.515Z,19.82
2017-10-10T05:04:50.316Z,19.83
2017-10-10T05:07:18.898Z,19.80
2017-10-10T05:09:47.674Z,19.80
2017-10-10T05:12:16.607Z,19.79
2017-10-10T05:14:45.482Z,19.78
2017-10-10T05:17:14.595Z,19.77
2017-10-10T05:19:43.343Z,19.77
2017-10-10T05:22:12.200Z,19.76
2017-10-10T05:24:40.854Z,19.76
2017-10-10T05:27:09.414Z,19.73
2017-10-10T05:29:38.257Z,19.78
2017-10-10T05:32:07.154Z,19.80
2017-10-10T05:34:35.932Z,19.82
2017-10-10T05:37:04.715Z,19.84
2017-10-10T05:39:33.798Z,19.85
2017-10-10T05:42:02.302Z,19.88
2017-10-10T05:44:31.060Z,19.89
2017-10-10T05:46:59.847Z,19.91
2017-10-10T05:49:28.567Z,19.88
2017-10-10T05:51:57.470Z,19.93
2017-10-10T05:54:26.079Z,19.97
2017-10-10T05:56:54.742Z,19.94
2017-10-10T05:59:23.566Z,19.96
2017-10-10T06:01:52.226Z,19.94
2017-10-10T06:04:21.019Z,19.95
2017-10-10T06:06:49.738Z,19.96
2017-10-10T06:09:18.614Z,19.97
2017-10-10T06:11:47.199Z,19.95
2017-10-10T06:14:15.995Z,19.96
2017-10-10T06:16:45.303Z,19.96
2017-10-10T06:19:14.075Z,19.95
2017-10-10T06:21:42.795Z,19.95
2017-10-10T06:24:11.362Z,19.96
2017-10-10T06:26:39.970Z,19.95
2017-10-10T06:29:08.731Z,19.95
2017-10-10T06:31:37.418Z,19.94
2017-10-10T06:34:06.300Z,19.95
2017-10-10T06:36:34.967Z,19.94
2017-10-10T06:39:03.699Z,19.93
2017-10-10T06:41:32.579Z,19.93
2017-10-10T06:44:01.414Z,19.93
2017-10-10T06:46:30.567Z,19.92
2017-10-10T06:48:59.191Z,19.91
2017-10-10T06:51:29.033Z,19.91
2017-10-10T06:53:57.623Z,19.92
2017-10-10T06:56:26.387Z,19.91
2017-10-10T06:58:55.220Z,19.93
2017-10-10T07:01:23.942Z,19.92
2017-10-10T07:03:52.603Z,19.91
2017-10-10T07:06:21.478Z,19.94
2017-10-10T07:08:50.112Z,19.95
2017-10-10T07:11:18.955Z,19.95
2017-10-10T07:13:47.542Z,19.95
2017-10-10T07:16:16.419Z,19.96
2017-10-10T07:18:45.242Z,19.97
2017-10-10T07:21:13.975Z,19.98
2017-10-10T07:23:42.869Z,19.99
2017-10-10T07:26:11.391Z,19.97
2017-10-10T07:28:40.047Z,20.00
2017-10-10T07:31:08.607Z,19.98
2017-10-10T07:33:37.202Z,19.97
2017-10-10T07:36:05.714Z,19.97
2017-10-10T07:38:34.650Z,19.96
2017-10-10T07:41:03.490Z,19.94
2017-10-10T07:43:32.311Z,19.95
2017-10-10T07:46:00.898Z,19.96
2017-10-10T07:48:29.759Z,19.93
2017-10-10T07:50:58.735Z,19.93
2017-10-10T07:53:27.406Z,19.93
2017-10-10T07:55:56.319Z,19.95
2017-10-10T07:58:25.062Z,19.94
2017-10-10T08:00:57.418Z,19.93
2017-10-10T08:03:27.570Z,19.92
2017-10-10T08:05:57.286Z,19.97
2017-10-10T08:08:26.559Z,20.04
2017-10-10T08:10:55.487Z,20.12
2017-10-10T08:13:24.339Z,20.19
2017-10-10T08:15:53.130Z,20.27
2017-10-10T08:18:22.327Z,20.25
2017-10-10T08:20:50.851Z,20.26
2017-10-10T08:23:19.503Z,20.22
2017-10-10T08:25:48.220Z,20.19
2017-10-10T08:28:17.083Z,20.19
2017-10-10T08:30:45.679Z,20.19
2017-10-10T08:33:14.263Z,20.19
2017-10-10T08:35:42.855Z,20.17
2017-10-10T08:38:11.627Z,20.18
2017-10-10T08:40:40.302Z,20.33
2017-10-10T08:43:08.818Z,20.47
2017-10-10T08:45:37.443Z,20.44
2017-10-10T08:48:06.476Z,20.38
2017-10-10T08:50:34.960Z,20.37
2017-10-10T08:53:03.802Z,20.41
2017-10-10T08:55:32.817Z,20.41
2017-10-10T08:58:01.581Z,20.41
2017-10-10T09:00:30.639Z,20.44
2017-10-10T09:02:59.898Z,20.45
2017-10-10T09:05:28.822Z,20.46
2017-10-10T09:07:57.865Z,20.43
2017-10-10T09:10:26.489Z,20.44
2017-10-10T09:12:57.015Z,20.43
2017-10-10T09:15:26.289Z,20.46
2017-10-10T09:17:55.908Z,20.45
2017-10-10T09:20:24.966Z,20.50
2017-10-10T09:22:53.819Z,20.48
2017-10-10T09:25:22.519Z,20.47
2017-10-10T09:27:51.183Z,20.46
2017-10-10T09:30:19.938Z,20.45
2017-10-10T09:32:48.719Z,20.46
2017-10-10T09:35:17.347Z,20.43
2017-10-10T09:37:46.140Z,20.44
2017-10-10T09:40:15.606Z,20.41
2017-10-10T09:42:44.353Z,20.44
2017-10-10T09:45:13.055Z,20.47
2017-10-10T09:47:44.069Z,20.47
2017-10-10T09:50:13.094Z,20.43
2017-10-10T09:52:41.878Z,20.48
2017-10-10T09:55:10.512Z,20.44
2017-10-10T09:57:39.079Z,20.48
2017-10-10T10:00:08.740Z,20.45
2017-10-10T10:02:37.459Z,20.46
2017-10-10T10:05:06.634Z,20.46
2017-10-10T10:07:36.752Z,20.45
2017-10-10T10:10:05.841Z,20.47
2017-10-10T10:12:34.490Z,20.44
2017-10-10T10:15:03.239Z,20.48
2017-10-10T10:17:31.885Z,20.44
2017-10-10T10:20:00.963Z,20.43
2017-10-10T10:22:31.477Z,20.47
2017-10-10T10:25:00.578Z,20.46
2017-10-10T10:27:29.352Z,20.45
2017-10-10T10:29:58.148Z,20.44
2017-10-10T10:32:26.827Z,20.45
2017-10-10T10:34:55.503Z,20.48
2017-10-10T10:37:24.034Z,20.47
2017-10-10T10:39:52.863Z,20.48
2017-10-10T10:42:21.420Z,20.53
2017-10-10T10:44:50.168Z,20.54
2017-10-10T10:47:19.077Z,20.53
2017-10-10T10:49:47.828Z,20.52
2017-10-10T10:52:16.420Z,20.50
2017-10-10T10:54:45.209Z,20.52
2017-10-10T10:57:13.799Z,20.53
2017-10-10T10:59:43.783Z,20.51
2017-10-10T11:02:12.549Z,20.54
2017-10-10T11:04:41.431Z,20.56
2017-10-10T11:07:10.359Z,20.58
2017-10-10T11:09:42.056Z,20.59
2017-10-10T11:12:10.674Z,20.59
2017-10-10T11:14:40.820Z,20.57
2017-10-10T11:17:10.919Z,20.59
2017-10-10T11:19:39.556Z,20.59
2017-10-10T11:22:09.859Z,20.58
2017-10-10T11:24:44.307Z,20.57
2017-10-10T11:27:12.995Z,20.56
2017-10-10T11:29:44.341Z,20.56
2017-10-10T11:32:13.914Z,20.55
2017-10-10T11:34:42.751Z,20.56
2017-10-10T11:37:11.611Z,20.76
2017-10-10T11:39:40.091Z,20.87
2017-10-10T11:42:09.181Z,21.00
2017-10-10T11:44:38.059Z,21.13
2017-10-10T11:47:08.398Z,21.26
2017-10-10T11:49:36.964Z,21.38
2017-10-10T11:52:06.131Z,21.51
2017-10-10T11:54:34.815Z,21.61
2017-10-10T11:57:03.993Z,21.71
2017-10-10T11:59:32.626Z,21.84
2017-10-10T12:02:01.971Z,21.93
2017-10-10T12:04:31.006Z,22.01
2017-10-10T12:06:59.491Z,21.83
2017-10-10T12:09:28.043Z,21.74
2017-10-10T12:11:57.071Z,21.68
2017-10-10T12:14:25.815Z,21.60
2017-10-10T12:16:54.311Z,21.56
2017-10-10T12:19:23.408Z,21.53
2017-10-10T12:21:53.531Z,21.50
2017-10-10T12:24:22.282Z,21.42
2017-10-10T12:26:52.815Z,21.41
2017-10-10T12:29:21.297Z,21.38
2017-10-10T12:31:50.015Z,21.34
2017-10-10T12:34:19.254Z,21.28
2017-10-10T12:36:47.951Z,21.33
2017-10-10T12:39:16.430Z,21.31
2017-10-10T12:41:45.138Z,21.27
2017-10-10T12:44:14.316Z,21.25
2017-10-10T12:46:42.992Z,21.20
2017-10-10T12:49:12.552Z,21.25
2017-10-10T12:51:41.139Z,21.24
2017-10-10T12:54:09.743Z,21.21
2017-10-10T12:56:38.545Z,21.24
2017-10-10T12:59:07.310Z,21.19
2017-10-10T13:01:37.519Z,21.18
2017-10-10T13:04:07.997Z,21.18
2017-10-10T13:06:36.606Z,21.16
2017-10-10T13:09:05.450Z,21.14
2017-10-10T13:11:34.151Z,21.15
2017-10-10T13:14:02.751Z,21.12
2017-10-10T13:16:32.583Z,21.12
2017-10-10T13:19:01.098Z,21.12
2017-10-10T13:21:29.683Z,21.12
2017-10-10T13:23:58.578Z,21.07
2017-10-10T13:26:27.414Z,21.08
2017-10-10T13:28:56.105Z,21.08
2017-10-10T13:31:25.053Z,21.11
2017-10-10T13:33:53.731Z,21.08
2017-10-10T13:36:22.285Z,21.05
2017-10-10T13:38:51.058Z,21.05
2017-10-10T13:41:19.615Z,20.99
2017-10-10T13:43:48.362Z,20.99
2017-10-10T13:46:17.079Z,21.04
2017-10-10T13:48:45.959Z,21.01
2017-10-10T13:51:16.678Z,20.91
2017-10-10T13:53:45.697Z,20.91
2017-10-10T13:56:14.647Z,20.89
2017-10-10T13:58:44.408Z,20.92
2017-10-10T14:01:13.064Z,20.92
2017-10-10T14:03:42.625Z,20.89
2017-10-10T14:06:11.802Z,20.86
2017-10-10T14:08:40.492Z,20.87
2017-10-10T14:11:10.783Z,20.85
2017-10-10T14:13:39.611Z,20.82
2017-10-10T14:16:08.547Z,20.81
2017-10-10T14:18:38.403Z,20.82
2017-10-10T14:21:08.505Z,20.80
2017-10-10T14:23:38.010Z,20.79
2017-10-10T14:26:06.943Z,20.74
2017-10-10T14:28:36.403Z,20.83
2017-10-10T14:31:05.218Z,20.82
2017-10-10T14:33:35.149Z,20.79
2017-10-10T14:38:33.342Z,20.93
2017-10-10T14:41:02.342Z,20.98
2017-10-10T14:43:31.254Z,21.01
2017-10-10T14:46:00.230Z,21.07
2017-10-10T14:48:29.162Z,21.04
2017-10-10T14:50:57.888Z,21.10
2017-10-10T14:53:26.678Z,21.11
2017-10-10T14:55:55.477Z,21.05
2017-10-10T14:58:24.935Z,21.02
2017-10-10T15:00:54.354Z,20.93
2017-10-10T15:03:24.007Z,20.91
2017-10-10T15:05:52.701Z,20.90
2017-10-10T15:08:21.322Z,20.87
2017-10-10T15:10:49.903Z,20.83
2017-10-10T15:13:18.803Z,20.83
2017-10-10T15:15:47.602Z,20.80
2017-10-10T15:18:16.320Z,20.78
2017-10-10T15:20:45.279Z,20.77
2017-10-10T15:23:13.844Z,20.76
2017-10-10T15:25:42.971Z,20.73
2017-10-10T15:28:11.964Z,20.70
2017-10-10T15:30:40.599Z,20.68
2017-10-10T15:33:09.230Z,20.68
2017-10-10T15:35:38.093Z,20.73
2017-10-10T15:38:06.763Z,20.72
2017-10-10T15:40:35.311Z,20.71
2017-10-10T15:43:04.128Z,20.71
2017-10-10T15:45:32.998Z,20.73
2017-10-10T15:48:01.706Z,20.70
2017-10-10T15:50:30.306Z,20.70
2017-10-10T15:52:59.596Z,20.73
2017-10-10T15:55:28.679Z,20.70
2017-10-10T15:57:57.294Z,20.73
2017-10-10T16:00:26.023Z,20.69
2017-10-10T16:02:56.195Z,20.77
2017-10-10T16:05:25.839Z,20.76
2017-10-10T16:07:54.688Z,20.75
2017-10-10T16:10:23.246Z,20.75
2017-10-10T16:12:51.919Z,20.73
2017-10-10T16:15:20.726Z,20.80
2017-10-10T16:17:49.223Z,20.77
2017-10-10T16:20:18.770Z,20.78
2017-10-10T16:22:47.555Z,20.84
2017-10-10T16:25:16.348Z,20.82
2017-10-10T16:27:45.223Z,20.83
2017-10-10T16:30:13.756Z,20.83
2017-10-10T16:32:42.570Z,20.82
2017-10-10T16:35:11.294Z,20.82
2017-10-10T16:37:40.151Z,20.82
2017-10-10T16:40:08.862Z,20.83
2017-10-10T16:42:37.936Z,20.85
2017-10-10T16:45:06.521Z,20.86
2017-10-10T16:47:35.322Z,20.84
2017-10-10T16:50:03.806Z,20.85
2017-10-10T16:52:32.714Z,20.85
2017-10-10T16:55:01.354Z,20.83
2017-10-10T16:57:30.271Z,20.86
2017-10-10T16:59:58.935Z,20.84
2017-10-10T17:02:28.252Z,20.84
2017-10-10T17:04:57.747Z,20.84
2017-10-10T17:07:26.712Z,20.80
2017-10-10T17:09:55.723Z,20.82
2017-10-10T17:12:24.235Z,20.82
2017-10-10T17:14:52.891Z,20.84
2017-10-10T17:17:21.608Z,20.83
2017-10-10T17:19:50.369Z,20.83
2017-10-10T17:22:19.154Z,20.86
2017-10-10T17:24:47.707Z,20.82
2017-10-10T17:27:16.382Z,20.82
2017-10-10T17:29:45.076Z,20.82
2017-10-10T17:32:13.980Z,20.83
2017-10-10T17:34:42.798Z,20.83
2017-10-10T17:37:11.562Z,20.81
2017-10-10T17:39:40.773Z,20.83
2017-10-10T17:42:09.319Z,20.89
2017-10-10T17:44:38.150Z,20.88
2017-10-10T17:47:07.026Z,20.84
2017-10-10T17:49:35.742Z,20.83
2017-10-10T17:52:04.679Z,20.84
2017-10-10T17:54:33.551Z,20.84
2017-10-10T17:57:02.430Z,20.84
2017-10-10T17:59:31.394Z,20.84
2017-10-10T18:02:01.352Z,20.84
2017-10-10T18:04:30.954Z,20.84
2017-10-10T18:06:59.452Z,20.84
2017-10-10T18:09:28.099Z,20.85
2017-10-10T18:11:56.718Z,20.84
2017-10-10T18:14:25.736Z,20.83
2017-10-10T18:16:54.284Z,20.83
2017-10-10T18:19:23.058Z,20.84
2017-10-10T18:21:51.708Z,20.84
2017-10-10T18:24:20.492Z,20.84
2017-10-10T18:26:49.430Z,20.84
2017-10-10T18:29:17.922Z,20.85
2017-10-10T18:31:46.851Z,20.84
2017-10-10T18:34:16.360Z,20.85
2017-10-10T18:36:45.215Z,20.85
2017-10-10T18:39:15.044Z,20.84
2017-10-10T18:41:44.474Z,20.84
2017-10-10T18:44:13.066Z,20.84
2017-10-10T18:46:41.980Z,20.84
2017-10-10T18:49:11.719Z,20.85
2017-10-10T18:51:40.304Z,20.84
2017-10-10T18:54:09.440Z,20.86
2017-10-10T18:56:37.919Z,20.84
2017-10-10T18:59:06.901Z,20.85
2017-10-10T19:01:35.543Z,20.85
2017-10-10T19:04:06.738Z,20.85
2017-10-10T19:06:35.893Z,20.86
2017-10-10T19:09:04.771Z,20.86
2017-10-10T19:11:33.825Z,20.86
2017-10-10T19:14:02.797Z,20.86
2017-10-10T19:16:31.607Z,20.85
2017-10-10T19:19:00.108Z,20.95
2017-10-10T19:21:28.738Z,20.94
2017-10-10T19:23:57.538Z,20.89
2017-10-10T19:26:26.215Z,20.86
2017-10-10T19:28:55.138Z,20.88
2017-10-10T19:31:24.767Z,20.88
2017-10-10T19:33:53.501Z,20.86
2017-10-10T19:36:22.271Z,20.86
2017-10-10T19:38:55.469Z,20.86
2017-10-10T19:41:25.535Z,20.87
2017-10-10T19:43:54.127Z,20.99
2017-10-10T19:46:23.472Z,21.13
2017-10-10T19:48:52.204Z,21.28
2017-10-10T19:51:21.050Z,21.41
2017-10-10T19:53:49.821Z,21.54
2017-10-10T19:56:18.986Z,21.65
2017-10-10T19:58:49.904Z,21.74
2017-10-10T20:01:20.148Z,21.85
2017-10-10T20:03:51.914Z,21.93
2017-10-10T20:06:21.002Z,21.99
2017-10-10T20:08:49.860Z,22.05
2017-10-10T20:11:18.723Z,22.16
2017-10-10T20:13:47.582Z,22.19
2017-10-10T20:16:16.436Z,22.24
2017-10-10T20:18:45.320Z,22.32
2017-10-10T20:21:14.183Z,22.36
2017-10-10T20:23:44.015Z,22.43
2017-10-10T20:26:12.675Z,22.50
2017-10-10T20:28:41.818Z,22.52
2017-10-10T20:31:10.808Z,22.57
2017-10-10T20:33:39.639Z,22.60
2017-10-10T20:36:08.602Z,22.65
2017-10-10T20:38:37.208Z,22.67
2017-10-10T20:41:06.087Z,22.70
2017-10-10T20:43:34.897Z,22.73
2017-10-10T20:46:03.699Z,22.77
2017-10-10T20:48:34.393Z,22.84
2017-10-10T20:51:04.152Z,22.87
2017-10-10T20:53:33.226Z,22.90
2017-10-10T20:56:02.091Z,22.82
2017-10-10T20:58:30.941Z,22.80
2017-10-10T21:00:59.643Z,22.83
2017-10-10T21:03:29.076Z,22.84
2017-10-10T21:05:57.915Z,22.83
2017-10-10T21:08:27.555Z,22.80
2017-10-10T21:10:56.667Z,22.78
2017-10-10T21:13:25.330Z,22.80
2017-10-10T21:15:53.947Z,22.80
2017-10-10T21:18:22.683Z,22.82
2017-10-10T21:20:51.497Z,22.82
2017-10-10T21:23:20.481Z,22.81
2017-10-10T21:25:49.431Z,22.84
2017-10-10T21:28:18.053Z,22.83
2017-10-10T21:30:46.567Z,22.85
2017-10-10T21:33:16.244Z,22.86
2017-10-10T21:35:45.638Z,22.84
2017-10-10T21:38:14.953Z,22.82
2017-10-10T21:40:43.926Z,22.80
2017-10-10T21:43:12.834Z,22.82
2017-10-10T21:45:42.306Z,22.85
2017-10-10T21:48:11.380Z,22.85
2017-10-10T21:50:40.547Z,22.84
2017-10-10T21:53:09.390Z,22.70
2017-10-10T21:55:37.927Z,22.49
2017-10-10T21:58:06.999Z,22.48
2017-10-10T22:00:35.916Z,22.46
2017-10-10T22:03:04.877Z,22.29
2017-10-10T22:05:36.440Z,22.26
2017-10-10T22:08:06.174Z,22.22
2017-10-10T22:10:35.146Z,22.19
2017-10-10T22:13:03.902Z,22.10
2017-10-10T22:15:32.726Z,22.09
2017-10-10T22:18:02.604Z,22.07
2017-10-10T22:20:31.445Z,22.03
2017-10-10T22:23:00.192Z,22.04
2017-10-10T22:25:28.715Z,22.01
2017-10-10T22:27:57.547Z,21.94
2017-10-10T22:30:26.266Z,21.98
2017-10-10T22:32:54.999Z,21.89
2017-10-10T22:35:23.815Z,21.88
2017-10-10T22:37:52.505Z,21.83
2017-10-10T22:40:21.031Z,21.83
2017-10-10T22:42:50.094Z,21.76
2017-10-10T22:45:18.803Z,21.81
2017-10-10T22:47:47.934Z,21.74
2017-10-10T22:50:16.939Z,21.73
2017-10-10T22:52:46.054Z,21.66
2017-10-10T22:55:14.558Z,21.69
2017-10-10T22:57:43.431Z,21.61
2017-10-10T23:00:12.019Z,21.59
2017-10-10T23:02:41.059Z,21.59
2017-10-10T23:05:10.618Z,21.55
2017-10-10T23:07:39.176Z,21.55
2017-10-10T23:10:07.907Z,21.54
2017-10-10T23:12:36.567Z,21.54
2017-10-10T23:15:05.480Z,21.53
2017-10-10T23:17:34.158Z,21.49
2017-10-10T23:20:02.691Z,21.47
2017-10-10T23:22:33.903Z,21.45
2017-10-10T23:25:02.551Z,21.40
2017-10-10T23:27:31.149Z,21.43
2017-10-10T23:29:59.994Z,21.39
2017-10-10T23:32:28.531Z,21.41
2017-10-10T23:34:57.247Z,21.34
2017-10-10T23:37:25.979Z,21.38
2017-10-10T23:39:54.572Z,21.32
2017-10-10T23:42:23.274Z,21.32
2017-10-10T23:44:52.026Z,21.27
2017-10-10T23:47:20.663Z,21.22
2017-10-10T23:49:49.290Z,21.23
2017-10-10T23:52:17.882Z,21.23
2017-10-10T23:54:46.743Z,21.23
2017-10-10T23:57:15.765Z,21.21
2017-10-10T23:59:44.234Z,21.18
